Time;durP1;ratioP1;P1;durP2;ratioP2;P2;SDS_P1;SDS_P2;PMS_P1;PMS_P2;Temp;Humidity;BMP_temperature;BMP_pressure;BME280_temperature;BME280_humidity;BME280_pressure;Samples;Min_cycle;Max_cycle;Signal;HPM_P1;HPM_P2
2024/02/16 00:01:43;;;;;;;2.23;1.23;;;11.30;99.90;;;;;;4891304;29;20474;-46
2024/02/16 00:04:11;;;;;;;1.80;1.50;;;11.30;99.90;;;;;;4887657;29;20990;-45
2024/02/16 00:06:40;;;;;;;1.23;0.87;;;11.30;99.90;;;;;;4881127;29;21027;-44
2024/02/16 00:09:09;;;;;;;1.47;1.00;;;11.30;99.90;;;;;;4891490;29;20433;-44
2024/02/16 00:11:40;;;;;;;1.30;0.90;;;11.30;99.90;;;;;;4887742;29;21153;-44
2024/02/16 00:14:08;;;;;;;2.83;1.10;;;11.30;99.90;;;;;;4891524;29;20453;-44
2024/02/16 00:16:37;;;;;;;2.37;1.57;;;11.30;99.90;;;;;;4890056;29;20480;-47
2024/02/16 00:19:06;;;;;;;2.00;1.00;;;11.30;99.90;;;;;;4889820;29;20477;-49
2024/02/16 00:21:34;;;;;;;2.13;1.40;;;11.30;99.90;;;;;;4891247;29;20577;-45
2024/02/16 00:24:03;;;;;;;1.80;1.20;;;11.30;99.90;;;;;;4891770;29;20590;-44
2024/02/16 00:26:32;;;;;;;2.60;1.30;;;11.30;99.90;;;;;;4889388;29;20912;-44
2024/02/16 00:29:01;;;;;;;1.83;1.27;;;11.30;99.90;;;;;;4889847;29;20430;-44
2024/02/16 00:31:30;;;;;;;1.83;1.07;;;11.30;99.90;;;;;;4889972;29;20478;-44
2024/02/16 00:33:58;;;;;;;2.00;1.20;;;11.30;99.90;;;;;;4887315;29;20561;-45
2024/02/16 00:36:28;;;;;;;3.93;1.47;;;11.30;99.90;;;;;;4889872;29;20470;-49
2024/02/16 00:38:57;;;;;;;2.20;1.50;;;11.30;99.90;;;;;;4893352;29;20963;-44
2024/02/16 00:41:25;;;;;;;2.00;1.20;;;11.30;99.90;;;;;;4889417;29;20872;-44
2024/02/16 00:43:54;;;;;;;1.70;1.03;;;11.30;99.90;;;;;;4891854;29;20999;-46
2024/02/16 00:46:23;;;;;;;1.50;1.07;;;11.30;99.90;;;;;;4889886;29;20462;-45
2024/02/16 00:48:53;;;;;;;2.40;1.00;;;11.30;99.90;;;;;;4889760;29;20458;-45
2024/02/16 00:51:25;;;;;;;1.47;1.10;;;11.30;99.90;;;;;;4885669;29;20917;-44
2024/02/16 00:53:54;;;;;;;1.80;1.23;;;11.30;99.90;;;;;;4890426;29;20964;-46
2024/02/16 00:56:22;;;;;;;1.90;1.20;;;11.30;99.90;;;;;;4889111;29;20506;-46
2024/02/16 00:58:50;;;;;;;2.33;1.43;;;11.30;99.90;;;;;;4890993;29;20500;-46
2024/02/16 01:01:21;;;;;;;1.70;1.20;;;11.30;99.90;;;;;;4884680;29;20584;-44
2024/02/16 01:03:51;;;;;;;4.43;1.27;;;11.30;99.90;;;;;;4888119;29;20504;-46
2024/02/16 01:06:20;;;;;;;1.93;1.30;;;11.30;99.90;;;;;;4882453;29;20541;-44
2024/02/16 01:08:54;;;;;;;1.80;1.43;;;11.30;99.90;;;;;;4887212;29;20970;-44
2024/02/16 01:11:24;;;;;;;1.60;1.10;;;11.30;99.90;;;;;;4882433;29;20524;-44
2024/02/16 01:13:57;;;;;;;1.80;1.43;;;11.30;99.90;;;;;;4887547;29;21076;-47
2024/02/16 01:16:25;;;;;;;1.47;0.97;;;11.30;99.90;;;;;;4888269;29;20478;-46
2024/02/16 01:18:58;;;;;;;2.93;1.40;;;11.30;99.90;;;;;;4888713;29;20892;-44
2024/02/16 01:21:26;;;;;;;1.90;1.10;;;11.30;99.90;;;;;;4890457;29;20840;-44
2024/02/16 01:23:55;;;;;;;3.33;1.20;;;11.30;99.90;;;;;;4889404;29;20454;-44
2024/02/16 01:26:23;;;;;;;1.40;1.10;;;11.30;99.90;;;;;;4885566;29;20901;-44
2024/02/16 01:28:51;;;;;;;2.73;1.10;;;11.30;99.90;;;;;;4891690;29;20805;-44
2024/02/16 01:31:21;;;;;;;2.63;1.10;;;11.30;99.90;;;;;;4881463;29;20477;-44
2024/02/16 01:33:49;;;;;;;1.90;1.50;;;11.30;99.90;;;;;;4887209;29;20470;-44
2024/02/16 01:36:19;;;;;;;1.87;1.17;;;11.30;99.90;;;;;;4892114;29;20814;-43
2024/02/16 01:38:47;;;;;;;1.47;1.07;;;11.30;99.90;;;;;;4895055;29;20447;-44
2024/02/16 01:41:15;;;;;;;2.37;1.47;;;11.30;99.90;;;;;;4889266;29;21217;-44
2024/02/16 01:43:43;;;;;;;2.17;1.43;;;11.30;99.90;;;;;;4892444;29;20454;-45
2024/02/16 01:46:11;;;;;;;1.90;1.07;;;11.30;99.90;;;;;;4894698;29;21006;-44
2024/02/16 01:48:40;;;;;;;2.00;1.40;;;11.30;99.90;;;;;;4891141;29;20899;-44
2024/02/16 01:51:10;;;;;;;1.77;1.10;;;11.30;99.90;;;;;;4892955;29;21020;-44
2024/02/16 01:53:41;;;;;;;1.47;1.20;;;11.20;99.90;;;;;;4893077;29;20459;-44
2024/02/16 01:56:09;;;;;;;1.30;0.97;;;11.30;99.90;;;;;;4888194;29;20485;-45
2024/02/16 01:58:39;;;;;;;1.50;1.00;;;11.30;99.90;;;;;;4890877;29;20881;-44
2024/02/16 02:01:07;;;;;;;3.00;1.40;;;11.30;99.90;;;;;;4894306;29;20485;-44
2024/02/16 02:03:37;;;;;;;2.10;1.40;;;11.30;99.90;;;;;;4890832;29;20497;-44
2024/02/16 02:06:06;;;;;;;1.83;1.20;;;11.30;99.90;;;;;;4892249;29;20480;-46
2024/02/16 02:08:34;;;;;;;1.43;1.10;;;11.30;99.90;;;;;;4892483;29;20441;-44
2024/02/16 02:11:05;;;;;;;1.30;1.03;;;11.30;99.90;;;;;;4891794;29;21016;-44
2024/02/16 02:13:33;;;;;;;4.30;1.30;;;11.30;99.90;;;;;;4891601;29;20446;-45
2024/02/16 02:16:04;;;;;;;2.43;1.50;;;11.30;99.90;;;;;;4892058;28;20474;-44
2024/02/16 02:18:32;;;;;;;1.80;1.13;;;11.30;99.90;;;;;;4887960;29;20451;-45
2024/02/16 02:21:00;;;;;;;1.57;0.93;;;11.30;99.90;;;;;;4891681;29;20488;-44
2024/02/16 02:23:30;;;;;;;1.67;1.20;;;11.20;99.90;;;;;;4892354;29;20510;-44
2024/02/16 02:25:58;;;;;;;1.70;1.23;;;11.20;99.90;;;;;;4891493;29;20827;-45
2024/02/16 02:28:26;;;;;;;2.67;1.30;;;11.20;99.90;;;;;;4890490;29;20434;-44
2024/02/16 02:30:55;;;;;;;4.03;1.43;;;11.20;99.90;;;;;;4890125;29;20462;-45
2024/02/16 02:33:24;;;;;;;2.00;1.20;;;11.20;99.90;;;;;;4889562;29;20476;-44
2024/02/16 02:35:53;;;;;;;1.60;1.10;;;11.20;99.90;;;;;;4892621;29;20848;-44
2024/02/16 02:38:22;;;;;;;1.70;1.00;;;11.20;99.90;;;;;;4885094;29;20936;-44
2024/02/16 02:40:53;;;;;;;2.30;1.37;;;11.20;99.90;;;;;;4891091;29;20500;-44
2024/02/16 02:43:25;;;;;;;1.70;1.07;;;11.20;99.90;;;;;;4886167;29;20567;-44
2024/02/16 02:45:53;;;;;;;1.73;0.93;;;11.20;99.90;;;;;;4888229;29;20853;-44
2024/02/16 02:48:21;;;;;;;2.67;1.20;;;11.20;99.90;;;;;;4882327;29;20453;-44
2024/02/16 02:50:52;;;;;;;2.60;1.70;;;11.20;99.90;;;;;;4892661;29;20999;-44
2024/02/16 02:53:21;;;;;;;1.80;1.40;;;11.20;99.90;;;;;;4896650;29;20458;-45
2024/02/16 02:55:50;;;;;;;2.50;1.30;;;11.20;99.90;;;;;;4889660;29;20461;-44
2024/02/16 02:58:20;;;;;;;2.50;1.40;;;11.20;99.90;;;;;;4887232;29;20542;-44
2024/02/16 03:00:48;;;;;;;2.23;1.47;;;11.20;99.90;;;;;;4892627;29;21000;-44
2024/02/16 03:03:16;;;;;;;1.97;1.10;;;11.20;99.90;;;;;;4893876;29;20474;-44
2024/02/16 03:05:46;;;;;;;2.50;1.20;;;11.20;99.90;;;;;;4894986;29;20983;-45
2024/02/16 03:08:14;;;;;;;2.00;1.20;;;11.20;99.90;;;;;;4898808;29;20446;-44
2024/02/16 03:10:44;;;;;;;2.20;1.50;;;11.20;99.90;;;;;;4897931;29;20518;-45
2024/02/16 03:13:14;;;;;;;1.87;1.20;;;11.20;99.90;;;;;;4896635;29;20454;-45
2024/02/16 03:15:43;;;;;;;1.90;1.40;;;11.20;99.90;;;;;;4895657;29;20533;-44
2024/02/16 03:18:11;;;;;;;1.70;1.03;;;11.20;99.90;;;;;;4895423;29;20452;-44
2024/02/16 03:20:40;;;;;;;2.00;1.40;;;11.20;99.90;;;;;;4898024;29;20892;-44
2024/02/16 03:23:08;;;;;;;2.13;1.53;;;11.20;99.90;;;;;;4896494;29;20459;-43
2024/02/16 03:25:36;;;;;;;1.60;1.30;;;11.20;99.90;;;;;;4893794;29;20489;-44
2024/02/16 03:28:05;;;;;;;2.00;1.40;;;11.20;99.90;;;;;;4896961;29;20461;-43
2024/02/16 03:30:34;;;;;;;2.00;1.23;;;11.20;99.90;;;;;;4898090;29;20466;-44
2024/02/16 03:33:04;;;;;;;2.90;1.10;;;11.20;99.90;;;;;;4894316;29;20801;-43
2024/02/16 03:35:32;;;;;;;2.77;1.47;;;11.20;99.90;;;;;;4891847;29;20469;-44
2024/02/16 03:38:00;;;;;;;2.30;1.53;;;11.20;99.90;;;;;;4898920;29;20452;-44
2024/02/16 03:40:29;;;;;;;2.40;1.57;;;11.20;99.90;;;;;;4897356;29;20541;-45
2024/02/16 03:42:58;;;;;;;1.87;1.20;;;11.20;99.90;;;;;;4895705;29;20466;-44
2024/02/16 03:45:28;;;;;;;1.80;1.20;;;11.20;99.90;;;;;;4891805;29;20464;-44
2024/02/16 03:47:56;;;;;;;3.00;1.70;;;11.20;99.90;;;;;;4897054;29;20492;-44
2024/02/16 03:50:27;;;;;;;1.93;1.40;;;11.20;99.90;;;;;;4896073;29;20549;-43
2024/02/16 03:52:55;;;;;;;1.83;1.53;;;11.20;99.90;;;;;;4897750;29;20975;-45
2024/02/16 03:55:26;;;;;;;2.20;1.70;;;11.20;99.90;;;;;;4896884;29;20469;-44
2024/02/16 03:57:54;;;;;;;2.40;1.40;;;11.20;99.90;;;;;;4897988;29;20474;-44
2024/02/16 04:00:23;;;;;;;2.67;1.60;;;11.20;99.90;;;;;;4891373;29;20551;-44
2024/02/16 04:02:51;;;;;;;2.40;1.13;;;11.20;99.90;;;;;;4886570;29;20933;-44
2024/02/16 04:05:19;;;;;;;2.50;1.30;;;11.20;99.90;;;;;;4888550;29;20482;-45
2024/02/16 04:07:49;;;;;;;4.57;1.50;;;11.20;99.90;;;;;;4890307;29;20952;-45
2024/02/16 04:10:17;;;;;;;2.07;1.53;;;11.20;99.90;;;;;;4888317;29;20470;-45
2024/02/16 04:12:46;;;;;;;2.90;1.30;;;11.20;99.90;;;;;;4885462;29;20453;-44
2024/02/16 04:15:15;;;;;;;1.80;1.10;;;11.20;99.90;;;;;;4883931;29;20561;-46
2024/02/16 04:17:43;;;;;;;3.50;1.40;;;11.20;99.90;;;;;;4887027;29;20457;-44
2024/02/16 04:20:12;;;;;;;2.13;1.30;;;11.20;99.90;;;;;;4887828;29;20497;-44
2024/02/16 04:22:40;;;;;;;1.63;1.40;;;11.20;99.90;;;;;;4891258;29;20842;-45
2024/02/16 04:25:10;;;;;;;4.27;1.53;;;11.20;99.90;;;;;;4885196;29;20494;-45
2024/02/16 04:27:39;;;;;;;2.23;1.27;;;11.20;99.90;;;;;;4889789;29;20454;-43
2024/02/16 04:30:08;;;;;;;2.17;1.30;;;11.20;99.90;;;;;;4893867;29;20488;-44
2024/02/16 04:32:37;;;;;;;2.90;1.30;;;11.20;99.90;;;;;;4883773;29;20450;-44
2024/02/16 04:35:11;;;;;;;2.93;1.33;;;11.20;99.90;;;;;;4890786;29;20469;-44
2024/02/16 04:37:40;;;;;;;2.03;1.30;;;11.20;99.90;;;;;;4889406;29;20443;-45
2024/02/16 04:40:12;;;;;;;2.03;1.20;;;11.20;99.90;;;;;;4888126;29;20520;-45
2024/02/16 04:42:41;;;;;;;2.10;1.60;;;11.20;99.90;;;;;;4888009;29;20480;-44
2024/02/16 04:45:12;;;;;;;3.47;1.17;;;11.20;99.90;;;;;;4887155;29;20503;-44
2024/02/16 04:47:41;;;;;;;1.73;1.63;;;11.20;99.90;;;;;;4887312;29;20465;-45
2024/02/16 04:50:11;;;;;;;1.97;1.30;;;11.20;99.90;;;;;;4887526;29;20499;-45
2024/02/16 04:52:40;;;;;;;5.47;1.50;;;11.20;99.90;;;;;;4888831;29;21313;-44
2024/02/16 04:55:11;;;;;;;1.67;1.33;;;11.20;99.90;;;;;;4888202;29;20469;-45
2024/02/16 04:57:39;;;;;;;2.10;1.10;;;11.20;99.90;;;;;;4889441;29;20454;-43
2024/02/16 05:00:09;;;;;;;1.43;1.03;;;11.20;99.90;;;;;;4890223;29;20461;-44
2024/02/16 05:02:39;;;;;;;1.83;1.60;;;11.20;99.90;;;;;;4885525;29;20988;-44
2024/02/16 05:05:10;;;;;;;1.70;1.20;;;11.20;99.90;;;;;;4889298;29;20987;-44
2024/02/16 05:07:38;;;;;;;2.73;1.30;;;11.20;99.90;;;;;;4888667;29;20450;-44
2024/02/16 05:10:11;;;;;;;2.20;1.60;;;11.20;99.90;;;;;;4889975;29;20464;-45
2024/02/16 05:12:41;;;;;;;2.20;1.50;;;11.20;99.90;;;;;;4893392;29;20545;-45
2024/02/16 05:15:13;;;;;;;3.13;1.50;;;11.20;99.90;;;;;;4890283;29;20480;-44
2024/02/16 05:17:41;;;;;;;1.60;1.20;;;11.20;99.90;;;;;;4889360;29;20844;-44
2024/02/16 05:20:15;;;;;;;2.10;1.37;;;11.20;99.90;;;;;;4893784;29;20461;-44
2024/02/16 05:22:45;;;;;;;2.03;1.40;;;11.20;99.90;;;;;;4893239;29;20518;-45
2024/02/16 05:25:17;;;;;;;2.13;1.37;;;11.20;99.90;;;;;;4890120;29;20498;-44
2024/02/16 05:27:48;;;;;;;1.97;1.50;;;11.20;99.90;;;;;;4891675;29;20486;-44
2024/02/16 05:30:17;;;;;;;2.80;1.40;;;11.20;99.90;;;;;;4892934;29;20912;-44
2024/02/16 05:32:45;;;;;;;3.07;2.00;;;11.20;99.90;;;;;;4888944;29;20481;-44
2024/02/16 05:35:14;;;;;;;3.50;1.53;;;11.20;99.90;;;;;;4892244;29;20508;-44
2024/02/16 05:37:48;;;;;;;3.20;1.60;;;11.20;99.90;;;;;;4892069;29;20439;-44
2024/02/16 05:40:24;;;;;;;1.83;1.20;;;11.20;99.90;;;;;;4890982;29;20939;-44
2024/02/16 05:42:53;;;;;;;1.73;1.20;;;11.20;99.90;;;;;;4893292;29;20492;-44
2024/02/16 05:45:22;;;;;;;2.23;1.43;;;11.20;99.90;;;;;;4889403;29;20469;-44
2024/02/16 05:47:51;;;;;;;2.30;2.10;;;11.20;99.90;;;;;;4879909;29;20513;-44
2024/02/16 05:50:23;;;;;;;2.60;1.43;;;11.20;99.90;;;;;;4885431;29;20489;-44
2024/02/16 05:52:51;;;;;;;2.30;1.27;;;11.30;99.90;;;;;;4890613;29;20442;-45
2024/02/16 05:55:24;;;;;;;3.67;1.73;;;11.20;99.90;;;;;;4885932;29;20478;-44
2024/02/16 05:57:53;;;;;;;2.40;1.17;;;11.20;99.90;;;;;;4891138;29;20509;-45
2024/02/16 06:00:22;;;;;;;1.80;1.27;;;11.20;99.90;;;;;;4886090;29;20465;-44
2024/02/16 06:02:50;;;;;;;2.20;1.87;;;11.20;99.90;;;;;;4891815;29;20484;-44
2024/02/16 06:05:20;;;;;;;2.20;1.40;;;11.20;99.90;;;;;;4888908;29;20474;-44
2024/02/16 06:07:49;;;;;;;1.83;1.40;;;11.30;99.90;;;;;;4886851;29;20451;-44
2024/02/16 06:10:18;;;;;;;2.70;1.60;;;11.20;99.90;;;;;;4892591;29;20462;-44
2024/02/16 06:12:48;;;;;;;2.77;2.40;;;11.20;99.90;;;;;;4886614;29;20517;-44
2024/02/16 06:15:17;;;;;;;1.67;1.27;;;11.30;99.90;;;;;;4890633;29;20476;-44
2024/02/16 06:17:49;;;;;;;2.90;1.17;;;11.20;99.90;;;;;;4888123;29;20453;-44
2024/02/16 06:20:18;;;;;;;2.97;1.50;;;11.20;99.90;;;;;;4890051;29;20474;-45
2024/02/16 06:22:49;;;;;;;2.10;1.53;;;11.20;99.90;;;;;;4890728;29;20893;-44
2024/02/16 06:25:17;;;;;;;2.03;1.33;;;11.30;99.90;;;;;;4889848;29;20488;-45
2024/02/16 06:27:45;;;;;;;2.00;1.50;;;11.20;99.90;;;;;;4888300;29;20487;-44
2024/02/16 06:30:15;;;;;;;1.83;1.40;;;11.20;99.90;;;;;;4891691;29;21567;-45
2024/02/16 06:32:45;;;;;;;1.50;1.00;;;11.20;99.90;;;;;;4889407;29;20759;-44
2024/02/16 06:35:15;;;;;;;3.63;1.80;;;11.20;99.90;;;;;;4882852;29;20469;-44
2024/02/16 06:37:43;;;;;;;2.13;1.37;;;11.20;99.90;;;;;;4899885;29;20854;-44
2024/02/16 06:40:12;;;;;;;1.60;1.13;;;11.20;99.90;;;;;;4891599;29;20547;-44
2024/02/16 06:42:40;;;;;;;4.00;1.60;;;11.20;99.90;;;;;;4891105;29;20470;-44
2024/02/16 06:45:09;;;;;;;3.47;1.90;;;11.20;99.90;;;;;;4888532;29;20468;-44
2024/02/16 06:47:41;;;;;;;3.80;1.70;;;11.20;99.90;;;;;;4889709;29;20965;-44
2024/02/16 06:50:10;;;;;;;2.50;1.60;;;11.30;99.90;;;;;;4891167;29;20471;-43
2024/02/16 06:52:40;;;;;;;1.80;1.20;;;11.20;99.90;;;;;;4890749;29;20486;-44
2024/02/16 06:55:09;;;;;;;3.07;1.40;;;11.20;99.90;;;;;;4888800;29;20530;-43
2024/02/16 06:57:37;;;;;;;1.80;1.20;;;11.20;99.90;;;;;;4890388;29;20857;-43
2024/02/16 07:00:08;;;;;;;3.10;1.37;;;11.20;99.90;;;;;;4890490;29;20496;-44
2024/02/16 07:02:37;;;;;;;1.77;1.47;;;11.20;99.90;;;;;;4885003;29;20462;-45
2024/02/16 07:05:07;;;;;;;2.60;1.60;;;11.20;99.90;;;;;;4888317;28;20476;-44
2024/02/16 07:07:35;;;;;;;2.00;1.43;;;11.20;99.90;;;;;;4890865;29;20453;-44
2024/02/16 07:10:05;;;;;;;2.30;1.60;;;11.30;99.90;;;;;;4889860;29;20460;-44
2024/02/16 07:12:34;;;;;;;2.37;1.70;;;11.20;99.90;;;;;;4888071;29;20885;-44
2024/02/16 07:15:02;;;;;;;2.33;1.50;;;11.20;99.90;;;;;;4887346;29;21065;-44
2024/02/16 07:17:33;;;;;;;2.30;1.47;;;11.20;99.90;;;;;;4881385;29;20548;-44
2024/02/16 07:20:03;;;;;;;3.80;1.30;;;11.20;99.90;;;;;;4889143;29;20476;-44
2024/02/16 07:22:34;;;;;;;2.67;1.50;;;11.20;99.90;;;;;;4891084;29;20464;-44
2024/02/16 07:25:03;;;;;;;1.97;1.63;;;11.20;99.90;;;;;;4890201;29;20465;-44
2024/02/16 07:27:31;;;;;;;2.07;1.33;;;11.20;99.90;;;;;;4888331;29;20450;-44
2024/02/16 07:29:59;;;;;;;1.53;1.13;;;11.20;99.90;;;;;;4889810;29;20525;-44
2024/02/16 07:32:27;;;;;;;2.30;1.20;;;11.20;99.90;;;;;;4884726;29;20449;-44
2024/02/16 07:34:55;;;;;;;1.80;1.17;;;11.20;99.90;;;;;;4890512;29;20458;-44
2024/02/16 07:37:24;;;;;;;1.80;1.13;;;11.20;99.90;;;;;;4889525;29;20484;-45
2024/02/16 07:39:54;;;;;;;2.40;1.40;;;11.20;99.90;;;;;;4890269;29;20446;-44
2024/02/16 07:42:22;;;;;;;2.10;1.20;;;11.20;99.90;;;;;;4882158;29;20514;-44
2024/02/16 07:44:51;;;;;;;1.93;1.40;;;11.20;99.90;;;;;;4889809;29;20508;-45
2024/02/16 07:47:20;;;;;;;3.23;1.80;;;11.20;99.90;;;;;;4876935;29;20457;-47
2024/02/16 07:49:48;;;;;;;2.50;1.27;;;11.20;99.90;;;;;;4885974;29;20536;-46
2024/02/16 07:52:16;;;;;;;2.03;1.30;;;11.20;99.90;;;;;;4888801;29;20445;-47
2024/02/16 07:54:44;;;;;;;1.90;1.50;;;11.20;99.90;;;;;;4889452;29;20457;-45
2024/02/16 07:57:14;;;;;;;1.40;1.00;;;11.20;99.90;;;;;;4884866;29;20445;-45
2024/02/16 07:59:43;;;;;;;1.97;1.30;;;11.20;99.90;;;;;;4889830;29;20444;-45
2024/02/16 08:02:15;;;;;;;2.37;1.70;;;11.20;99.90;;;;;;4887055;29;20453;-45
2024/02/16 08:04:44;;;;;;;1.93;1.33;;;11.20;99.90;;;;;;4893567;29;20837;-46
2024/02/16 08:07:12;;;;;;;2.10;1.30;;;11.20;99.90;;;;;;4887852;29;21006;-47
2024/02/16 08:09:40;;;;;;;4.80;1.27;;;11.20;99.90;;;;;;4888382;29;20453;-49
2024/02/16 08:12:09;;;;;;;2.83;1.27;;;11.20;99.90;;;;;;4884209;29;20526;-47
2024/02/16 08:14:39;;;;;;;2.07;1.50;;;11.20;99.90;;;;;;4892343;29;20457;-48
2024/02/16 08:17:07;;;;;;;1.90;1.30;;;11.20;99.90;;;;;;4886404;29;23066;-48
2024/02/16 08:19:53;;;;;;;1.73;1.23;;;11.20;99.90;;;;;;4889305;29;20454;-46
2024/02/16 08:22:22;;;;;;;2.17;1.40;;;11.20;99.90;;;;;;4882904;29;20441;-47
2024/02/16 08:24:49;;;;;;;2.53;1.33;;;11.20;99.90;;;;;;4885791;29;20524;-47
2024/02/16 08:27:18;;;;;;;2.00;1.43;;;11.20;99.90;;;;;;4885898;29;20469;-46
2024/02/16 08:29:47;;;;;;;1.83;1.20;;;11.20;99.90;;;;;;4888606;29;20482;-46
2024/02/16 08:32:16;;;;;;;1.73;1.13;;;11.20;99.90;;;;;;4886822;29;20480;-45
2024/02/16 08:34:45;;;;;;;2.27;1.40;;;11.20;99.90;;;;;;4888704;29;20873;-48
2024/02/16 08:37:13;;;;;;;1.80;1.30;;;11.20;99.90;;;;;;4887986;29;20440;-49
2024/02/16 08:39:42;;;;;;;2.50;1.53;;;11.20;99.90;;;;;;4884226;29;20433;-47
2024/02/16 08:42:11;;;;;;;2.40;1.27;;;11.20;99.90;;;;;;4887014;29;20552;-46
2024/02/16 08:44:41;;;;;;;2.00;1.20;;;11.30;99.90;;;;;;4888291;29;20470;-47
2024/02/16 08:47:11;;;;;;;2.20;1.20;;;11.20;99.90;;;;;;4888020;29;20508;-48
2024/02/16 08:49:42;;;;;;;2.17;1.40;;;11.20;99.90;;;;;;4886834;29;20963;-47
2024/02/16 08:52:10;;;;;;;2.33;1.60;;;11.30;99.90;;;;;;4889692;29;20860;-46
2024/02/16 08:54:39;;;;;;;2.33;1.53;;;11.20;99.90;;;;;;4892202;29;20462;-50
2024/02/16 08:57:09;;;;;;;2.00;1.17;;;11.20;99.90;;;;;;4890570;29;20465;-48
2024/02/16 08:59:38;;;;;;;3.15;1.73;;;11.30;99.90;;;;;;4892410;29;20455;-46
2024/02/16 09:02:07;;;;;;;4.33;1.67;;;11.30;99.90;;;;;;4888052;28;20320;-45
2024/02/16 09:04:37;;;;;;;2.50;1.50;;;11.30;99.90;;;;;;4886733;29;20931;-48
2024/02/16 09:07:05;;;;;;;2.40;1.57;;;11.30;99.90;;;;;;4889728;29;21500;-47
2024/02/16 09:09:34;;;;;;;1.87;1.60;;;11.30;99.90;;;;;;4889956;29;20476;-46
2024/02/16 09:12:03;;;;;;;1.80;1.20;;;;;;;;;;4888910;28;20485;-50
2024/02/16 09:14:31;;;;;;;4.73;2.00;;;;;;;;;;4884397;29;20708;-46
2024/02/16 09:17:01;;;;;;;2.83;1.93;;;11.40;99.90;;;;;;4885749;29;20469;-46
2024/02/16 09:19:29;;;;;;;2.57;1.73;;;11.30;99.90;;;;;;4890531;29;20442;-49
2024/02/16 09:22:01;;;;;;;1.53;1.23;;;;;;;;;;4890696;29;21070;-45
2024/02/16 09:24:30;;;;;;;1.80;1.30;;;;;;;;;;4890038;29;20950;-46
2024/02/16 09:27:03;;;;;;;4.40;1.90;;;;;;;;;;4888427;29;20568;-46
2024/02/16 09:29:31;;;;;;;1.97;1.50;;;;;;;;;;4892202;29;20804;-47
2024/02/16 09:32:02;;;;;;;5.60;1.47;;;;;;;;;;4888475;29;20931;-44
2024/02/16 09:34:31;;;;;;;1.70;1.20;;;;;;;;;;4885560;29;20461;-48
2024/02/16 09:37:01;;;;;;;2.80;2.03;;;;;;;;;;4888103;29;20565;-47
2024/02/16 09:39:30;;;;;;;2.10;1.50;;;;;;;;;;4891861;29;20445;-47
2024/02/16 09:41:59;;;;;;;2.00;1.40;;;;;;;;;;4885658;29;20512;-45
2024/02/16 09:44:28;;;;;;;6.00;2.43;;;;;;;;;;4886028;29;20503;-43
2024/02/16 09:46:57;;;;;;;4.03;2.60;;;;;;;;;;4887673;29;20521;-45
2024/02/16 09:49:26;;;;;;;5.53;2.13;;;;;;;;;;4891081;29;20442;-49
2024/02/16 09:52:11;;;;;;;3.70;2.20;;;;;;;;;;4890094;29;20523;-45
2024/02/16 09:54:40;;;;;;;5.33;2.30;;;;;;;;;;4885066;29;20813;-44
2024/02/16 09:57:09;;;;;;;3.53;2.00;;;;;;;;;;4886127;29;20868;-47
2024/02/16 09:59:38;;;;;;;5.40;2.10;;;;;;;;;;4891409;29;20967;-45
2024/02/16 10:02:07;;;;;;;5.80;2.23;;;;;;;;;;4888406;29;20459;-49
2024/02/16 10:04:36;;;;;;;5.10;1.80;;;;;;;;;;4885270;29;20470;-44
2024/02/16 10:07:05;;;;;;;2.73;1.73;;;;;;;;;;4889199;28;20462;-48
2024/02/16 10:09:41;;;;;;;4.70;2.67;;;;;;;;;;4886656;29;20525;-47
2024/02/16 10:12:11;;;;;;;4.97;2.30;;;;;;;;;;4888457;29;21054;-48
2024/02/16 10:14:41;;;;;;;2.70;2.20;;;;;;;;;;4888821;29;20465;-45
2024/02/16 10:17:10;;;;;;;2.30;2.07;;;;;;;;;;4882609;29;20479;-44
2024/02/16 10:19:40;;;;;;;2.73;1.93;;;;;;;;;;4884522;29;20488;-45
2024/02/16 10:22:11;;;;;;;3.10;2.00;;;;;;;;;;4889608;29;20457;-44
2024/02/16 10:24:42;;;;;;;3.50;2.10;;;;;;;;;;4888373;29;20466;-45
2024/02/16 10:27:16;;;;;;;4.13;2.10;;;;;;;;;;4889093;29;20541;-45
2024/02/16 10:29:49;;;;;;;4.60;2.40;;;;;;;;;;4886942;29;20650;-43
2024/02/16 10:32:18;;;;;;;5.10;2.07;;;;;;;;;;4888237;29;20450;-47
2024/02/16 10:34:47;;;;;;;3.50;2.27;;;;;;;;;;4885034;28;20466;-44
2024/02/16 10:37:17;;;;;;;2.53;1.87;;;;;;;;;;4888915;29;20445;-43
2024/02/16 10:39:47;;;;;;;4.67;2.40;;;;;;;;;;4886211;29;20874;-44
2024/02/16 10:42:16;;;;;;;3.50;1.97;;;;;;;;;;4889909;29;20536;-45
2024/02/16 10:44:46;;;;;;;2.53;1.97;;;;;;;;;;4889294;29;20885;-49
2024/02/16 10:47:14;;;;;;;3.10;2.00;;;;;;;;;;4887145;29;20457;-46
2024/02/16 10:49:42;;;;;;;3.30;2.13;;;;;;;;;;4889858;29;20432;-49
2024/02/16 10:52:14;;;;;;;2.63;1.90;;;;;;;;;;4893507;29;20510;-49
2024/02/16 10:54:43;;;;;;;3.37;1.93;;;;;;;;;;4891284;29;20456;-49
2024/02/16 10:57:14;;;;;;;2.47;2.00;;;;;;;;;;4900435;29;20847;-49
2024/02/16 10:59:44;;;;;;;3.17;1.80;;;;;;;;;;4892867;29;20491;-45
2024/02/16 11:02:12;;;;;;;3.37;1.73;;;;;;;;;;4892450;29;20524;-44
2024/02/16 11:04:41;;;;;;;3.17;2.13;;;;;;;;;;4886603;29;20467;-43
2024/02/16 11:07:12;;;;;;;6.20;2.20;;;;;;;;;;4888011;29;20492;-44
2024/02/16 11:09:41;;;;;;;3.10;2.80;;;;;;;;;;4907206;29;20478;-44
2024/02/16 11:12:12;;;;;;;2.93;2.00;;;;;;;;;;4885387;29;20463;-46
2024/02/16 11:14:43;;;;;;;2.50;2.00;;;;;;;;;;4900172;29;20550;-45
2024/02/16 11:17:12;;;;;;;2.40;1.50;;;;;;;;;;4887930;29;20477;-46
2024/02/16 11:19:42;;;;;;;3.73;2.07;;;;;;;;;;4896289;29;20521;-46
2024/02/16 11:22:11;;;;;;;2.80;1.77;;;;;;;;;;4894483;29;20640;-45
2024/02/16 11:24:44;;;;;;;3.93;2.07;;;;;;;;;;4890419;29;20868;-45
2024/02/16 11:27:15;;;;;;;3.33;1.77;;;;;;;;;;4890477;29;20451;-44
2024/02/16 11:29:45;;;;;;;3.17;2.30;;;;;;;;;;4879661;29;20831;-44
2024/02/16 11:32:13;;;;;;;2.17;1.97;;;;;;;;;;4881596;29;20580;-45
2024/02/16 11:34:42;;;;;;;2.90;1.93;;;;;;;;;;4887132;29;20461;-48
2024/02/16 11:37:11;;;;;;;3.87;2.17;;;;;;;;;;4879591;29;20486;-46
2024/02/16 11:39:40;;;;;;;3.03;2.37;;;;;;;;;;4897681;29;20493;-46
2024/02/16 11:42:10;;;;;;;3.10;1.90;;;;;;;;;;4891045;29;20575;-45
2024/02/16 11:44:41;;;;;;;3.30;2.63;;;;;;;;;;4883594;29;20986;-43
2024/02/16 11:47:14;;;;;;;5.10;2.63;;;;;;;;;;4883717;29;20645;-46
2024/02/16 11:49:43;;;;;;;7.70;2.87;;;;;;;;;;4884878;29;21419;-45
2024/02/16 11:52:12;;;;;;;9.03;2.53;;;;;;;;;;4881409;29;20465;-45
2024/02/16 11:54:45;;;;;;;3.20;2.20;;;;;;;;;;4888482;29;20458;-45
2024/02/16 11:57:14;;;;;;;3.47;1.70;;;;;;;;;;4882576;29;20477;-43
2024/02/16 11:59:43;;;;;;;4.40;2.10;;;;;;;;;;4883831;29;20447;-46
2024/02/16 12:02:20;;;;;;;2.90;1.63;;;;;;;;;;4872125;29;20482;-43
2024/02/16 12:04:50;;;;;;;3.63;2.03;;;;;;;;;;4883526;29;20464;-44
2024/02/16 12:07:30;;;;;;;5.33;2.80;;;;;;;;;;4884515;29;20419;-46
2024/02/16 12:09:59;;;;;;;3.47;2.20;;;;;;;;;;4880934;29;20430;-48
2024/02/16 12:12:28;;;;;;;3.10;2.20;;;;;;;;;;4883151;29;20532;-44
2024/02/16 12:14:57;;;;;;;3.53;2.70;;;;;;;;;;4885808;29;20627;-46
2024/02/16 12:17:27;;;;;;;5.97;2.30;;;;;;;;;;4872403;29;20485;-46
2024/02/16 12:19:56;;;;;;;3.77;2.20;;;;;;;;;;4870164;29;20507;-44
2024/02/16 12:22:25;;;;;;;4.10;2.53;;;;;;;;;;4879495;29;20495;-43
2024/02/16 12:24:54;;;;;;;3.20;2.23;;;;;;;;;;4886024;29;20552;-45
2024/02/16 12:27:22;;;;;;;3.67;2.37;;;;;;;;;;4877157;29;20459;-45
2024/02/16 12:29:51;;;;;;;4.03;2.47;;;;;;;;;;4874450;29;20862;-44
2024/02/16 12:32:20;;;;;;;4.90;2.20;;;;;;;;;;4875241;29;20447;-44
2024/02/16 12:34:50;;;;;;;3.83;2.47;;;;;;;;;;4901742;28;20835;-44
2024/02/16 12:37:19;;;;;;;4.63;2.37;;;;;;;;;;4893131;29;20436;-44
2024/02/16 12:39:48;;;;;;;2.73;2.20;;;;;;;;;;4881323;29;20443;-44
2024/02/16 12:42:17;;;;;;;5.47;2.47;;;;;;;;;;4880527;29;20996;-44
2024/02/16 12:44:45;;;;;;;4.43;2.13;;;;;;;;;;4879374;29;21074;-45
2024/02/16 12:47:14;;;;;;;5.00;2.93;;;;;;;;;;4872089;29;20486;-46
2024/02/16 12:49:45;;;;;;;5.40;2.33;;;;;;;;;;4887707;29;20929;-46
2024/02/16 12:52:22;;;;;;;3.60;2.00;;;;;;;;;;4869915;29;20498;-46
2024/02/16 12:54:52;;;;;;;3.27;2.07;;;;;;;;;;4883278;28;20474;-47
2024/02/16 12:57:21;;;;;;;2.50;2.30;;;;;;;;;;4877111;29;20451;-46
2024/02/16 12:59:50;;;;;;;2.60;1.93;;;;;;;;;;4870176;29;20535;-49
2024/02/16 13:02:18;;;;;;;2.90;2.27;;;;;;;;;;4885101;29;20454;-47
2024/02/16 13:04:47;;;;;;;2.60;1.80;;;;;;;;;;4878575;29;20459;-42
2024/02/16 13:07:18;;;;;;;2.73;2.20;;;;;;;;;;4877141;29;20471;-46
2024/02/16 13:09:47;;;;;;;3.07;2.20;;;;;;;;;;4870642;29;20872;-45
2024/02/16 13:12:16;;;;;;;3.30;2.10;;;;;;;;;;4879984;29;20474;-48
2024/02/16 13:14:50;;;;;;;2.87;2.00;;;;;;;;;;4887436;29;20463;-47
2024/02/16 13:17:18;;;;;;;4.57;2.33;;;;;;;;;;4876107;29;20468;-47
2024/02/16 13:19:47;;;;;;;4.60;2.33;;;;;;;;;;4881628;29;20434;-49
2024/02/16 13:22:15;;;;;;;2.97;1.90;;;;;;;;;;4876135;29;20832;-46
2024/02/16 13:27:24;;;;;;;3.03;1.80;;;;;;;;;;5078854;27;20655;-48
2024/02/16 13:29:55;;;;;;;4.47;2.13;;;;;;;;;;5080093;27;20417;-48
2024/02/16 13:32:30;;;;;;;2.47;1.93;;;;;;;;;;5052206;28;20446;-48
2024/02/16 13:35:00;;;;;;;2.87;1.97;;;;;;;;;;5052104;28;20553;-48